SWA4688 KDEN-KBOI
Flight info
| Callsign | SWA4688 |
|---|---|
| Flight time | 1h 27m |
| Altitude | 36000 |
| Route | ZIMMR4 CHNGY REAPS KOURT4 |
| Aircraft | B738/M-SDE2E3GIJ4RWZ/LB1D1 |
Departure
| Time | 2026-05-03 20:55 |
|---|---|
| Airport | Denver International Airport (KDEN) |
Arrival
| Time | 2026-05-03 22:23 |
|---|---|
| Airport | Boise Air Terminal/Gowen Field (KBOI) |
| Time | Latitude | Longitude | Altitude | Speed | Heading |
|---|---|---|---|---|---|
| 2026-05-03 20:31 | 39.86232 | -104.67310 | 5376 ft | 0 kts | 19° |
| 2026-05-03 20:47 | 39.86231 | -104.67311 | 5376 ft | 1 kts | 19° |
| 2026-05-03 20:47 | 39.86208 | -104.67321 | 5372 ft | 4 kts | 19° |
| 2026-05-03 20:47 | 39.86183 | -104.67332 | 5371 ft | 4 kts | 2° |
| 2026-05-03 20:48 | 39.86158 | -104.67325 | 5376 ft | 4 kts | 340° |
| 2026-05-03 20:48 | 39.86147 | -104.67321 | 5376 ft | 0 kts | 355° |
| 2026-05-03 20:50 | 39.86153 | -104.67325 | 5374 ft | 4 kts | 330° |
| 2026-05-03 20:50 | 39.86148 | -104.67370 | 5376 ft | 8 kts | 205° |
| 2026-05-03 20:50 | 39.86081 | -104.67413 | 5377 ft | 12 kts | 232° |
| 2026-05-03 20:51 | 39.86065 | -104.67519 | 5378 ft | 13 kts | 272° |
| 2026-05-03 20:51 | 39.86066 | -104.67657 | 5375 ft | 17 kts | 270° |
| 2026-05-03 20:51 | 39.86067 | -104.67826 | 5378 ft | 19 kts | 270° |
| 2026-05-03 20:51 | 39.86069 | -104.67996 | 5378 ft | 18 kts | 270° |
| 2026-05-03 20:52 | 39.86051 | -104.68154 | 5378 ft | 18 kts | 239° |
| 2026-05-03 20:52 | 39.86030 | -104.68311 | 5374 ft | 19 kts | 272° |
| 2026-05-03 20:52 | 39.86046 | -104.68483 | 5368 ft | 20 kts | 309° |
| 2026-05-03 20:52 | 39.86178 | -104.68508 | 5365 ft | 20 kts | 1° |
| 2026-05-03 20:53 | 39.86300 | -104.68506 | 5361 ft | 17 kts | 0° |
| 2026-05-03 20:53 | 39.86413 | -104.68518 | 5362 ft | 16 kts | 324° |
| 2026-05-03 20:53 | 39.86427 | -104.68657 | 5362 ft | 15 kts | 270° |
| 2026-05-03 20:53 | 39.86496 | -104.68718 | 5362 ft | 7 kts | 0° |
| 2026-05-03 20:54 | 39.86504 | -104.68717 | 5363 ft | 0 kts | 0° |
| 2026-05-03 20:54 | 39.87061 | -104.68711 | 5360 ft | 108 kts | 0° |
| 2026-05-03 20:54 | 39.88035 | -104.68701 | 5369 ft | 170 kts | 360° |
| 2026-05-03 20:55 | 39.89305 | -104.68665 | 5946 ft | 183 kts | 359° |
| 2026-05-03 20:55 | 39.90556 | -104.68622 | 6980 ft | 183 kts | 355° |
| 2026-05-03 20:55 | 39.91791 | -104.69148 | 7379 ft | 200 kts | 317° |
| 2026-05-03 20:55 | 39.92550 | -104.70762 | 7570 ft | 224 kts | 287° |
| 2026-05-03 20:56 | 39.92991 | -104.72839 | 7782 ft | 252 kts | 282° |
| 2026-05-03 20:56 | 39.93101 | -104.75251 | 8123 ft | 278 kts | 270° |
| 2026-05-03 20:56 | 39.93066 | -104.77800 | 8965 ft | 284 kts | 272° |
| 2026-05-03 20:56 | 39.93095 | -104.80393 | 9778 ft | 290 kts | 271° |
| 2026-05-03 20:57 | 39.93124 | -104.83037 | 10645 ft | 291 kts | 272° |
| 2026-05-03 20:57 | 39.93154 | -104.85672 | 11586 ft | 291 kts | 272° |
| 2026-05-03 20:57 | 39.93185 | -104.88358 | 12212 ft | 305 kts | 272° |
| 2026-05-03 20:57 | 39.93224 | -104.91240 | 12394 ft | 331 kts | 272° |
| 2026-05-03 20:58 | 39.93294 | -104.94301 | 12589 ft | 354 kts | 272° |
| 2026-05-03 20:58 | 39.93378 | -104.97612 | 13027 ft | 367 kts | 272° |
| 2026-05-03 20:58 | 39.93459 | -105.00942 | 13755 ft | 369 kts | 272° |
| 2026-05-03 20:58 | 39.93537 | -105.04297 | 14521 ft | 371 kts | 272° |
| 2026-05-03 20:59 | 39.93612 | -105.07627 | 15248 ft | 374 kts | 272° |
| 2026-05-03 20:59 | 39.93687 | -105.11026 | 15952 ft | 377 kts | 272° |
| 2026-05-03 20:59 | 39.93764 | -105.14459 | 16618 ft | 380 kts | 272° |
| 2026-05-03 20:59 | 39.93839 | -105.17914 | 17266 ft | 384 kts | 272° |
| 2026-05-03 21:00 | 39.93916 | -105.21409 | 17906 ft | 387 kts | 272° |
| 2026-05-03 21:00 | 39.93999 | -105.23781 | 18349 ft | 388 kts | 275° |
| 2026-05-03 21:00 | 39.94361 | -105.28438 | 19194 ft | 392 kts | 277° |
| 2026-05-03 21:00 | 39.94680 | -105.31981 | 19800 ft | 394 kts | 277° |
| 2026-05-03 21:01 | 39.94980 | -105.35543 | 20398 ft | 397 kts | 276° |
| 2026-05-03 21:01 | 39.95266 | -105.39132 | 20969 ft | 399 kts | 276° |
| 2026-05-03 21:01 | 39.95547 | -105.42757 | 21505 ft | 403 kts | 276° |
| 2026-05-03 21:01 | 39.95831 | -105.46398 | 22067 ft | 404 kts | 276° |
| 2026-05-03 21:02 | 39.96117 | -105.50053 | 22581 ft | 407 kts | 275° |
| 2026-05-03 21:02 | 39.96384 | -105.53695 | 23057 ft | 410 kts | 275° |
| 2026-05-03 21:02 | 39.96673 | -105.57364 | 23097 ft | 404 kts | 275° |
| 2026-05-03 21:02 | 39.96959 | -105.61046 | 23186 ft | 414 kts | 276° |
| 2026-05-03 21:03 | 39.97258 | -105.64824 | 23309 ft | 424 kts | 276° |
| 2026-05-03 21:03 | 39.97525 | -105.68696 | 23551 ft | 431 kts | 274° |
| 2026-05-03 21:03 | 39.97733 | -105.72613 | 23939 ft | 435 kts | 274° |
| 2026-05-03 21:03 | 39.97915 | -105.76540 | 24524 ft | 433 kts | 273° |
| 2026-05-03 21:04 | 39.98094 | -105.80435 | 25215 ft | 428 kts | 273° |
| 2026-05-03 21:04 | 39.98275 | -105.84285 | 25917 ft | 423 kts | 273° |
| 2026-05-03 21:04 | 39.98456 | -105.88094 | 26541 ft | 419 kts | 273° |
| 2026-05-03 21:04 | 39.98638 | -105.91862 | 26837 ft | 424 kts | 273° |
| 2026-05-03 21:05 | 39.98826 | -105.95728 | 27009 ft | 430 kts | 273° |
| 2026-05-03 21:05 | 39.99016 | -105.99655 | 27148 ft | 436 kts | 273° |
| 2026-05-03 21:05 | 39.99208 | -106.03628 | 27351 ft | 441 kts | 273° |
| 2026-05-03 21:05 | 39.99398 | -106.07611 | 27885 ft | 436 kts | 273° |
| 2026-05-03 21:06 | 39.99582 | -106.11503 | 28668 ft | 427 kts | 273° |
| 2026-05-03 21:06 | 39.99764 | -106.15363 | 29100 ft | 426 kts | 273° |
| 2026-05-03 21:06 | 39.99946 | -106.19242 | 29371 ft | 429 kts | 273° |
| 2026-05-03 21:06 | 40.00127 | -106.23140 | 29661 ft | 431 kts | 273° |
| 2026-05-03 21:07 | 40.00306 | -106.26991 | 30070 ft | 429 kts | 273° |
| 2026-05-03 21:07 | 40.00483 | -106.30862 | 30606 ft | 424 kts | 273° |
| 2026-05-03 21:07 | 40.00658 | -106.34696 | 31106 ft | 421 kts | 273° |
| 2026-05-03 21:07 | 40.00831 | -106.38504 | 31494 ft | 420 kts | 273° |
| 2026-05-03 21:08 | 40.01001 | -106.42302 | 31836 ft | 419 kts | 273° |
| 2026-05-03 21:08 | 40.01366 | -106.46072 | 32186 ft | 419 kts | 283° |
| 2026-05-03 21:08 | 40.02411 | -106.49631 | 32578 ft | 420 kts | 296° |
| 2026-05-03 21:08 | 40.03868 | -106.52878 | 32983 ft | 419 kts | 298° |
| 2026-05-03 21:09 | 40.05401 | -106.56115 | 33328 ft | 418 kts | 299° |
| 2026-05-03 21:09 | 40.06947 | -106.59340 | 33657 ft | 418 kts | 299° |
| 2026-05-03 21:09 | 40.08485 | -106.62554 | 33997 ft | 416 kts | 299° |
| 2026-05-03 21:09 | 40.10009 | -106.65761 | 34361 ft | 414 kts | 298° |
| 2026-05-03 21:10 | 40.11518 | -106.68965 | 34690 ft | 413 kts | 298° |
| 2026-05-03 21:10 | 40.13016 | -106.72168 | 34913 ft | 414 kts | 298° |
| 2026-05-03 21:10 | 40.14498 | -106.75355 | 35136 ft | 415 kts | 298° |
| 2026-05-03 21:10 | 40.15994 | -106.78577 | 35450 ft | 413 kts | 298° |
| 2026-05-03 21:11 | 40.17482 | -106.81791 | 35772 ft | 411 kts | 298° |
| 2026-05-03 21:11 | 40.18964 | -106.84996 | 36014 ft | 411 kts | 298° |
| 2026-05-03 21:11 | 40.21949 | -106.91469 | 36110 ft | 418 kts | 298° |
| 2026-05-03 21:12 | 40.24933 | -106.97949 | 36099 ft | 416 kts | 298° |
| 2026-05-03 21:12 | 40.27896 | -107.04389 | 36105 ft | 410 kts | 298° |
| 2026-05-03 21:13 | 40.30842 | -107.10810 | 36097 ft | 410 kts | 298° |
| 2026-05-03 21:13 | 40.33779 | -107.17228 | 36094 ft | 410 kts | 298° |
| 2026-05-03 21:14 | 40.36697 | -107.23617 | 36080 ft | 410 kts | 298° |
| 2026-05-03 21:14 | 40.39633 | -107.30060 | 36082 ft | 411 kts | 298° |
| 2026-05-03 21:15 | 40.42566 | -107.36505 | 36074 ft | 411 kts | 298° |
| 2026-05-03 21:15 | 40.45474 | -107.42908 | 36075 ft | 411 kts | 298° |
| 2026-05-03 21:16 | 40.48399 | -107.49366 | 36072 ft | 410 kts | 298° |
| 2026-05-03 21:16 | 40.51319 | -107.55827 | 36061 ft | 411 kts | 298° |
| 2026-05-03 21:17 | 40.53751 | -107.61216 | 36062 ft | 412 kts | 298° |
| 2026-05-03 21:17 | 40.57148 | -107.68763 | 36073 ft | 413 kts | 297° |
| 2026-05-03 21:18 | 40.60076 | -107.75280 | 36072 ft | 413 kts | 297° |
| 2026-05-03 21:18 | 40.63002 | -107.81808 | 36075 ft | 414 kts | 297° |
| 2026-05-03 21:19 | 40.65908 | -107.88302 | 36075 ft | 414 kts | 297° |
| 2026-05-03 21:19 | 40.68837 | -107.94864 | 36078 ft | 414 kts | 297° |
| 2026-05-03 21:20 | 40.71761 | -108.01421 | 36070 ft | 414 kts | 297° |
| 2026-05-03 21:20 | 40.74657 | -108.07937 | 36070 ft | 414 kts | 297° |
| 2026-05-03 21:21 | 40.77563 | -108.14494 | 36074 ft | 414 kts | 297° |
| 2026-05-03 21:21 | 40.80468 | -108.21060 | 36068 ft | 414 kts | 297° |
| 2026-05-03 21:22 | 40.83357 | -108.27603 | 36076 ft | 414 kts | 297° |
| 2026-05-03 21:22 | 40.86263 | -108.34198 | 36077 ft | 415 kts | 297° |
| 2026-05-03 21:23 | 40.89169 | -108.40809 | 36073 ft | 415 kts | 297° |
| 2026-05-03 21:23 | 40.92048 | -108.47366 | 36080 ft | 415 kts | 297° |
| 2026-05-03 21:24 | 40.94949 | -108.53994 | 36072 ft | 416 kts | 297° |
| 2026-05-03 21:24 | 40.97840 | -108.60615 | 36077 ft | 415 kts | 297° |
| 2026-05-03 21:25 | 41.00728 | -108.67237 | 36090 ft | 415 kts | 297° |
| 2026-05-03 21:25 | 41.03612 | -108.73868 | 36080 ft | 415 kts | 297° |
| 2026-05-03 21:26 | 41.06471 | -108.80458 | 36082 ft | 415 kts | 297° |
| 2026-05-03 21:26 | 41.09345 | -108.87093 | 36085 ft | 414 kts | 297° |
| 2026-05-03 21:27 | 41.12211 | -108.93726 | 36075 ft | 414 kts | 297° |
| 2026-05-03 21:27 | 41.15074 | -109.00368 | 36080 ft | 415 kts | 297° |
| 2026-05-03 21:28 | 41.17454 | -109.05901 | 36067 ft | 415 kts | 297° |
| 2026-05-03 21:28 | 41.20777 | -109.13643 | 36070 ft | 415 kts | 297° |
| 2026-05-03 21:29 | 41.23636 | -109.20316 | 36075 ft | 415 kts | 297° |
| 2026-05-03 21:29 | 41.26011 | -109.25873 | 36072 ft | 416 kts | 297° |
| 2026-05-03 21:30 | 41.28869 | -109.32573 | 36075 ft | 416 kts | 297° |
| 2026-05-03 21:30 | 41.31724 | -109.39279 | 36074 ft | 416 kts | 297° |
| 2026-05-03 21:31 | 41.34576 | -109.45998 | 36084 ft | 417 kts | 297° |
| 2026-05-03 21:31 | 41.37426 | -109.52724 | 36082 ft | 417 kts | 297° |
| 2026-05-03 21:32 | 41.40277 | -109.59469 | 36075 ft | 417 kts | 297° |
| 2026-05-03 21:32 | 41.43122 | -109.66217 | 36072 ft | 418 kts | 297° |
| 2026-05-03 21:33 | 41.45963 | -109.72972 | 36081 ft | 417 kts | 297° |
| 2026-05-03 21:33 | 41.48783 | -109.79685 | 36091 ft | 417 kts | 297° |
| 2026-05-03 21:34 | 41.51613 | -109.86439 | 36098 ft | 417 kts | 297° |
| 2026-05-03 21:34 | 41.54440 | -109.93201 | 36107 ft | 417 kts | 297° |
| 2026-05-03 21:35 | 41.57265 | -109.99977 | 36105 ft | 417 kts | 297° |
| 2026-05-03 21:35 | 41.60086 | -110.06760 | 36111 ft | 417 kts | 297° |
| 2026-05-03 21:36 | 41.62900 | -110.13542 | 36113 ft | 418 kts | 296° |
| 2026-05-03 21:36 | 41.65699 | -110.20299 | 36114 ft | 418 kts | 296° |
| 2026-05-03 21:37 | 41.68519 | -110.27119 | 36111 ft | 419 kts | 296° |
| 2026-05-03 21:37 | 41.71336 | -110.33953 | 36108 ft | 419 kts | 296° |
| 2026-05-03 21:38 | 41.74151 | -110.40798 | 36109 ft | 419 kts | 296° |
| 2026-05-03 21:38 | 41.76965 | -110.47654 | 36113 ft | 420 kts | 296° |
| 2026-05-03 21:39 | 41.79759 | -110.54477 | 36115 ft | 420 kts | 296° |
| 2026-05-03 21:39 | 41.82564 | -110.61352 | 36110 ft | 420 kts | 296° |
| 2026-05-03 21:40 | 41.85369 | -110.68238 | 36112 ft | 421 kts | 296° |
| 2026-05-03 21:40 | 41.88175 | -110.75138 | 36110 ft | 421 kts | 296° |
| 2026-05-03 21:41 | 41.90983 | -110.82060 | 36108 ft | 421 kts | 296° |
| 2026-05-03 21:41 | 41.93787 | -110.88989 | 36104 ft | 422 kts | 296° |
| 2026-05-03 21:42 | 41.96570 | -110.95882 | 36092 ft | 422 kts | 296° |
| 2026-05-03 21:42 | 41.99368 | -111.02828 | 36084 ft | 422 kts | 296° |
| 2026-05-03 21:43 | 42.02168 | -111.09798 | 36072 ft | 423 kts | 296° |
| 2026-05-03 21:43 | 42.04962 | -111.16768 | 36059 ft | 423 kts | 296° |
| 2026-05-03 21:44 | 42.07752 | -111.23747 | 36059 ft | 423 kts | 296° |
| 2026-05-03 21:44 | 42.10522 | -111.30690 | 36047 ft | 424 kts | 296° |
| 2026-05-03 21:45 | 42.13306 | -111.37684 | 36057 ft | 423 kts | 296° |
| 2026-05-03 21:45 | 42.16083 | -111.44681 | 36050 ft | 423 kts | 296° |
| 2026-05-03 21:46 | 42.18857 | -111.51685 | 36037 ft | 423 kts | 296° |
| 2026-05-03 21:46 | 42.21629 | -111.58704 | 36053 ft | 424 kts | 296° |
| 2026-05-03 21:47 | 42.24398 | -111.65738 | 36045 ft | 424 kts | 296° |
| 2026-05-03 21:47 | 42.27151 | -111.72742 | 36058 ft | 425 kts | 296° |
| 2026-05-03 21:48 | 42.29926 | -111.79809 | 36046 ft | 425 kts | 296° |
| 2026-05-03 21:48 | 42.32695 | -111.86887 | 36041 ft | 426 kts | 296° |
| 2026-05-03 21:49 | 42.35469 | -111.93989 | 36023 ft | 427 kts | 296° |
| 2026-05-03 21:49 | 42.38219 | -112.01053 | 36020 ft | 427 kts | 296° |
| 2026-05-03 21:50 | 42.40983 | -112.08173 | 36009 ft | 427 kts | 296° |
| 2026-05-03 21:50 | 42.43727 | -112.15259 | 36002 ft | 427 kts | 295° |
| 2026-05-03 21:51 | 42.46479 | -112.22378 | 36000 ft | 426 kts | 296° |
| 2026-05-03 21:51 | 42.49226 | -112.29504 | 36000 ft | 426 kts | 295° |
| 2026-05-03 21:52 | 42.51966 | -112.36629 | 36001 ft | 426 kts | 295° |
| 2026-05-03 21:52 | 42.54699 | -112.43745 | 35997 ft | 425 kts | 296° |
| 2026-05-03 21:53 | 42.57426 | -112.50879 | 36005 ft | 426 kts | 295° |
| 2026-05-03 21:53 | 42.60142 | -112.57997 | 35996 ft | 426 kts | 295° |
| 2026-05-03 21:54 | 42.62866 | -112.65155 | 35998 ft | 427 kts | 295° |
| 2026-05-03 21:54 | 42.65591 | -112.72333 | 36011 ft | 426 kts | 295° |
| 2026-05-03 21:55 | 42.68305 | -112.79501 | 36004 ft | 427 kts | 295° |
| 2026-05-03 21:55 | 42.71008 | -112.86650 | 35990 ft | 428 kts | 295° |
| 2026-05-03 21:56 | 42.73736 | -112.93884 | 35990 ft | 429 kts | 295° |
| 2026-05-03 21:56 | 42.76457 | -113.01121 | 35992 ft | 430 kts | 295° |
| 2026-05-03 21:57 | 42.79156 | -113.08326 | 35993 ft | 429 kts | 295° |
| 2026-05-03 21:57 | 42.81869 | -113.15580 | 35990 ft | 430 kts | 295° |
| 2026-05-03 21:58 | 42.84573 | -113.22836 | 35986 ft | 430 kts | 295° |
| 2026-05-03 21:58 | 42.87282 | -113.30111 | 35968 ft | 430 kts | 295° |
| 2026-05-03 21:59 | 42.89991 | -113.37403 | 35964 ft | 431 kts | 295° |
| 2026-05-03 21:59 | 42.92692 | -113.44700 | 35961 ft | 431 kts | 295° |
| 2026-05-03 22:00 | 42.95371 | -113.51956 | 35973 ft | 430 kts | 295° |
| 2026-05-03 22:00 | 42.98065 | -113.59268 | 35979 ft | 430 kts | 295° |
| 2026-05-03 22:01 | 43.00750 | -113.66578 | 35970 ft | 430 kts | 295° |
| 2026-05-03 22:01 | 43.03430 | -113.73895 | 35974 ft | 430 kts | 295° |
| 2026-05-03 22:02 | 43.06099 | -113.81199 | 35357 ft | 437 kts | 295° |
| 2026-05-03 22:02 | 43.07452 | -113.84910 | 34713 ft | 435 kts | 295° |
| 2026-05-03 22:02 | 43.08724 | -113.88402 | 34084 ft | 435 kts | 295° |
| 2026-05-03 22:03 | 43.10075 | -113.92117 | 33380 ft | 435 kts | 295° |
| 2026-05-03 22:03 | 43.11424 | -113.95833 | 32660 ft | 436 kts | 295° |
| 2026-05-03 22:03 | 43.12777 | -113.99563 | 31926 ft | 437 kts | 295° |
| 2026-05-03 22:03 | 43.14119 | -114.03266 | 31431 ft | 432 kts | 295° |
| 2026-05-03 22:04 | 43.15450 | -114.06941 | 30897 ft | 428 kts | 295° |
| 2026-05-03 22:04 | 43.16674 | -114.10631 | 30347 ft | 424 kts | 288° |
| 2026-05-03 22:04 | 43.17500 | -114.14440 | 29800 ft | 421 kts | 284° |
| 2026-05-03 22:04 | 43.18217 | -114.18314 | 29267 ft | 417 kts | 283° |
| 2026-05-03 22:05 | 43.18905 | -114.22155 | 28728 ft | 414 kts | 283° |
| 2026-05-03 22:05 | 43.19602 | -114.25979 | 28200 ft | 411 kts | 284° |
| 2026-05-03 22:05 | 43.20309 | -114.29752 | 27681 ft | 408 kts | 284° |
| 2026-05-03 22:05 | 43.21025 | -114.33498 | 27183 ft | 404 kts | 284° |
| 2026-05-03 22:06 | 43.21742 | -114.37213 | 26609 ft | 402 kts | 284° |
| 2026-05-03 22:06 | 43.22458 | -114.40905 | 26102 ft | 399 kts | 285° |
| 2026-05-03 22:06 | 43.23173 | -114.44607 | 25367 ft | 402 kts | 285° |
| 2026-05-03 22:06 | 43.23886 | -114.48313 | 24813 ft | 400 kts | 285° |
| 2026-05-03 22:07 | 43.24585 | -114.51986 | 24286 ft | 397 kts | 285° |
| 2026-05-03 22:07 | 43.25289 | -114.55633 | 23775 ft | 394 kts | 285° |
| 2026-05-03 22:07 | 43.25988 | -114.59256 | 23277 ft | 392 kts | 285° |
| 2026-05-03 22:07 | 43.26678 | -114.62861 | 22802 ft | 388 kts | 285° |
| 2026-05-03 22:08 | 43.27349 | -114.66383 | 22307 ft | 386 kts | 285° |
| 2026-05-03 22:08 | 43.28026 | -114.69945 | 21806 ft | 384 kts | 285° |
| 2026-05-03 22:08 | 43.28694 | -114.73471 | 21324 ft | 381 kts | 285° |
| 2026-05-03 22:08 | 43.29358 | -114.76979 | 20857 ft | 378 kts | 285° |
| 2026-05-03 22:09 | 43.30021 | -114.80477 | 20366 ft | 376 kts | 285° |
| 2026-05-03 22:09 | 43.30673 | -114.83933 | 19884 ft | 373 kts | 285° |
| 2026-05-03 22:09 | 43.31323 | -114.87385 | 19414 ft | 371 kts | 285° |
| 2026-05-03 22:10 | 43.32606 | -114.94196 | 18483 ft | 366 kts | 285° |
| 2026-05-03 22:10 | 43.33238 | -114.97572 | 18006 ft | 363 kts | 284° |
| 2026-05-03 22:10 | 43.33864 | -115.00920 | 17536 ft | 361 kts | 284° |
| 2026-05-03 22:10 | 43.34486 | -115.04255 | 17106 ft | 358 kts | 284° |
| 2026-05-03 22:11 | 43.35094 | -115.07516 | 16668 ft | 355 kts | 284° |
| 2026-05-03 22:11 | 43.35705 | -115.10796 | 16209 ft | 354 kts | 284° |
| 2026-05-03 22:11 | 43.36314 | -115.14068 | 15762 ft | 352 kts | 284° |
| 2026-05-03 22:11 | 43.36914 | -115.17319 | 15314 ft | 350 kts | 284° |
| 2026-05-03 22:12 | 43.37511 | -115.20560 | 14853 ft | 348 kts | 284° |
| 2026-05-03 22:12 | 43.38103 | -115.23777 | 14399 ft | 347 kts | 284° |
| 2026-05-03 22:12 | 43.38694 | -115.26993 | 13955 ft | 345 kts | 284° |
| 2026-05-03 22:12 | 43.39278 | -115.30184 | 13510 ft | 343 kts | 284° |
| 2026-05-03 22:13 | 43.39856 | -115.33336 | 13061 ft | 342 kts | 284° |
| 2026-05-03 22:13 | 43.40431 | -115.36469 | 12603 ft | 341 kts | 284° |
| 2026-05-03 22:13 | 43.41019 | -115.39664 | 12146 ft | 340 kts | 284° |
| 2026-05-03 22:13 | 43.41599 | -115.42822 | 11697 ft | 339 kts | 284° |
| 2026-05-03 22:14 | 43.42167 | -115.45921 | 11246 ft | 338 kts | 284° |
| 2026-05-03 22:14 | 43.42738 | -115.49041 | 10976 ft | 332 kts | 284° |
| 2026-05-03 22:14 | 43.43293 | -115.52078 | 10818 ft | 322 kts | 284° |
| 2026-05-03 22:14 | 43.43829 | -115.55020 | 10664 ft | 312 kts | 284° |
| 2026-05-03 22:15 | 43.44347 | -115.57869 | 10544 ft | 303 kts | 284° |
| 2026-05-03 22:15 | 43.44755 | -115.60683 | 10266 ft | 299 kts | 276° |
| 2026-05-03 22:15 | 43.44858 | -115.62566 | 10161 ft | 295 kts | 272° |
| 2026-05-03 22:15 | 43.44986 | -115.66262 | 9983 ft | 284 kts | 272° |
| 2026-05-03 22:16 | 43.45049 | -115.68064 | 9769 ft | 285 kts | 272° |
| 2026-05-03 22:16 | 43.45186 | -115.70812 | 9484 ft | 291 kts | 275° |
| 2026-05-03 22:16 | 43.45365 | -115.73605 | 9179 ft | 295 kts | 275° |
| 2026-05-03 22:16 | 43.45551 | -115.76425 | 8865 ft | 295 kts | 275° |
| 2026-05-03 22:17 | 43.45799 | -115.80131 | 8431 ft | 293 kts | 275° |
| 2026-05-03 22:17 | 43.45921 | -115.82017 | 8229 ft | 292 kts | 275° |
| 2026-05-03 22:17 | 43.46098 | -115.84790 | 7890 ft | 289 kts | 275° |
| 2026-05-03 22:17 | 43.46257 | -115.87515 | 7521 ft | 281 kts | 274° |
| 2026-05-03 22:18 | 43.46407 | -115.90121 | 7174 ft | 274 kts | 274° |
| 2026-05-03 22:18 | 43.46569 | -115.92738 | 6828 ft | 267 kts | 278° |
| 2026-05-03 22:18 | 43.47146 | -115.95093 | 6498 ft | 261 kts | 296° |
| 2026-05-03 22:18 | 43.47944 | -115.97299 | 6183 ft | 255 kts | 296° |
| 2026-05-03 22:19 | 43.48706 | -115.99467 | 5874 ft | 248 kts | 295° |
| 2026-05-03 22:19 | 43.49447 | -116.01598 | 5580 ft | 246 kts | 295° |
| 2026-05-03 22:19 | 43.50162 | -116.03677 | 5356 ft | 233 kts | 295° |
| 2026-05-03 22:19 | 43.50832 | -116.05620 | 5126 ft | 217 kts | 295° |
| 2026-05-03 22:20 | 43.51462 | -116.07449 | 4847 ft | 204 kts | 295° |
| 2026-05-03 22:20 | 43.52050 | -116.09160 | 4607 ft | 191 kts | 294° |
| 2026-05-03 22:20 | 43.52610 | -116.10793 | 4408 ft | 187 kts | 294° |
| 2026-05-03 22:20 | 43.53118 | -116.12428 | 4235 ft | 187 kts | 290° |
| 2026-05-03 22:21 | 43.53581 | -116.14104 | 3980 ft | 186 kts | 290° |
| 2026-05-03 22:21 | 43.54084 | -116.15698 | 3723 ft | 175 kts | 294° |
| 2026-05-03 22:21 | 43.54571 | -116.17135 | 3485 ft | 158 kts | 294° |
| 2026-05-03 22:21 | 43.55027 | -116.18483 | 3272 ft | 154 kts | 295° |
| 2026-05-03 22:22 | 43.55481 | -116.19813 | 3059 ft | 153 kts | 295° |
| 2026-05-03 22:22 | 43.55940 | -116.21149 | 2895 ft | 152 kts | 295° |
| 2026-05-03 22:22 | 43.56350 | -116.22350 | 2880 ft | 118 kts | 295° |
| 2026-05-03 22:22 | 43.56606 | -116.23099 | 2882 ft | 55 kts | 295° |
| 2026-05-03 22:23 | 43.56753 | -116.23526 | 2881 ft | 47 kts | 295° |
| 2026-05-03 22:23 | 43.56843 | -116.23792 | 2883 ft | 18 kts | 295° |
| 2026-05-03 22:23 | 43.56931 | -116.23808 | 2882 ft | 14 kts | 23° |
| 2026-05-03 22:23 | 43.57016 | -116.23749 | 2882 ft | 13 kts | 27° |
| 2026-05-03 22:24 | 43.57097 | -116.23694 | 2882 ft | 13 kts | 42° |
| 2026-05-03 22:24 | 43.57101 | -116.23572 | 2881 ft | 15 kts | 113° |
| 2026-05-03 22:24 | 43.57049 | -116.23419 | 2880 ft | 24 kts | 116° |
| 2026-05-03 22:24 | 43.56988 | -116.23242 | 2880 ft | 30 kts | 115° |
| 2026-05-03 22:25 | 43.56901 | -116.22985 | 2880 ft | 28 kts | 115° |
| 2026-05-03 22:25 | 43.56821 | -116.22751 | 2880 ft | 26 kts | 115° |
| 2026-05-03 22:25 | 43.56747 | -116.22531 | 2880 ft | 24 kts | 115° |
| 2026-05-03 22:25 | 43.56675 | -116.22324 | 2880 ft | 24 kts | 115° |
| 2026-05-03 22:26 | 43.56626 | -116.22160 | 2880 ft | 6 kts | 77° |
| 2026-05-03 22:26 | 43.56652 | -116.22137 | 2880 ft | 9 kts | 35° |
| 2026-05-03 22:26 | 43.56651 | -116.22044 | 2880 ft | 10 kts | 114° |
| 2026-05-03 22:26 | 43.56665 | -116.21998 | 2880 ft | 6 kts | 34° |
| 2026-05-03 22:27 | 43.56689 | -116.21977 | 2880 ft | 1 kts | 32° |
| 2026-05-03 22:27 | 43.56692 | -116.21975 | 2880 ft | 0 kts | 32° |